createdAt,value
2018-06-18T00:00:42.601Z,16.90
2018-06-18T00:01:42.760Z,16.96
2018-06-18T00:02:42.911Z,16.98
2018-06-18T00:03:43.065Z,16.95
2018-06-18T00:04:43.221Z,17.10
2018-06-18T00:05:43.375Z,17.08
2018-06-18T00:06:43.526Z,16.95
2018-06-18T00:07:43.682Z,17.00
2018-06-18T00:08:43.878Z,16.99
2018-06-18T00:09:43.990Z,16.95
2018-06-18T00:10:44.145Z,16.96
2018-06-18T00:11:44.299Z,17.10
2018-06-18T00:12:44.453Z,16.96
2018-06-18T00:13:44.607Z,16.95
2018-06-18T00:14:44.760Z,16.96
2018-06-18T00:15:44.916Z,16.89
2018-06-18T00:16:45.069Z,16.83
2018-06-18T00:17:45.226Z,16.95
2018-06-18T00:18:45.381Z,16.93
2018-06-18T00:19:45.535Z,16.90
2018-06-18T00:20:45.689Z,16.90
2018-06-18T00:21:45.842Z,16.75
2018-06-18T00:22:45.996Z,16.80
2018-06-18T00:23:46.153Z,16.75
2018-06-18T00:24:46.303Z,16.75
2018-06-18T00:25:46.456Z,16.80
2018-06-18T00:26:46.611Z,16.80
2018-06-18T00:27:46.764Z,16.68
2018-06-18T00:28:46.917Z,16.63
2018-06-18T00:29:47.071Z,16.71
2018-06-18T00:30:47.225Z,16.60
2018-06-18T00:31:47.379Z,16.70
2018-06-18T00:32:47.545Z,16.71
2018-06-18T00:33:47.696Z,16.70
2018-06-18T00:34:47.850Z,16.53
2018-06-18T00:35:48.005Z,16.60
2018-06-18T00:36:48.160Z,16.63
2018-06-18T00:37:48.310Z,16.55
2018-06-18T00:38:48.466Z,16.59
2018-06-18T00:39:48.620Z,16.59
2018-06-18T00:40:48.774Z,16.52
2018-06-18T00:41:48.927Z,16.49
2018-06-18T00:42:49.079Z,16.55
2018-06-18T00:43:49.232Z,16.50
2018-06-18T00:44:49.389Z,16.23
2018-06-18T00:45:49.541Z,16.20
2018-06-18T00:46:49.696Z,16.22
2018-06-18T00:47:49.853Z,16.25
2018-06-18T00:48:50.013Z,16.18
2018-06-18T00:49:50.162Z,16.30
2018-06-18T00:50:50.315Z,16.18
2018-06-18T00:51:50.469Z,16.15
2018-06-18T00:52:50.624Z,16.06
2018-06-18T00:53:50.777Z,16.12
2018-06-18T00:54:50.930Z,16.11
2018-06-18T00:55:51.084Z,16.09
2018-06-18T00:56:51.238Z,16.14
2018-06-18T00:57:51.389Z,16.11
2018-06-18T00:58:51.546Z,16.06
2018-06-18T00:59:51.702Z,16.14
2018-06-18T01:00:51.854Z,15.89
2018-06-18T01:01:52.008Z,15.97
2018-06-18T01:02:52.160Z,16.07
2018-06-18T01:03:52.313Z,16.12
2018-06-18T01:04:52.467Z,16.09
2018-06-18T01:05:52.623Z,16.09
2018-06-18T01:06:52.774Z,16.18
2018-06-18T01:07:52.926Z,16.20
2018-06-18T01:08:53.080Z,16.27
2018-06-18T01:09:53.235Z,16.18
2018-06-18T01:10:53.390Z,16.16
2018-06-18T01:11:53.538Z,16.23
2018-06-18T01:12:53.695Z,16.26
2018-06-18T01:13:53.849Z,16.18
2018-06-18T01:14:54.003Z,16.09
2018-06-18T01:15:54.157Z,16.06
2018-06-18T01:16:54.312Z,16.11
2018-06-18T01:17:54.464Z,16.04
2018-06-18T01:18:54.620Z,16.06
2018-06-18T01:19:54.770Z,15.96
2018-06-18T01:20:54.925Z,16.09
2018-06-18T01:21:55.077Z,16.04
2018-06-18T01:22:55.233Z,16.00
2018-06-18T01:23:55.385Z,15.99
2018-06-18T01:24:55.541Z,16.01
2018-06-18T01:25:55.693Z,15.96
2018-06-18T01:26:55.848Z,15.96
2018-06-18T01:27:56.004Z,15.93
2018-06-18T01:28:56.157Z,15.97
2018-06-18T01:29:56.310Z,15.89
2018-06-18T01:30:56.463Z,15.94
2018-06-18T01:31:56.617Z,15.93
2018-06-18T01:32:56.772Z,15.93
2018-06-18T01:33:56.924Z,15.94
2018-06-18T01:34:57.077Z,15.81
2018-06-18T01:35:57.233Z,15.67
2018-06-18T01:36:57.385Z,15.66
2018-06-18T01:37:57.539Z,15.63
2018-06-18T01:38:57.695Z,15.52
2018-06-18T01:39:57.847Z,15.43
2018-06-18T01:40:57.999Z,15.43
2018-06-18T01:41:58.155Z,15.36
2018-06-18T01:42:58.302Z,15.42
2018-06-18T01:43:58.455Z,15.42
2018-06-18T01:44:58.609Z,15.41
2018-06-18T01:45:58.762Z,15.35
2018-06-18T01:46:58.915Z,15.39
2018-06-18T01:47:59.067Z,15.41
2018-06-18T01:48:59.221Z,15.30
2018-06-18T01:49:59.374Z,15.28
2018-06-18T01:50:59.528Z,15.31
2018-06-18T01:51:59.681Z,15.38
2018-06-18T01:52:59.835Z,15.36
2018-06-18T01:53:59.988Z,15.38
2018-06-18T01:55:00.146Z,15.45
2018-06-18T01:56:00.296Z,15.39
2018-06-18T01:57:00.447Z,15.26
2018-06-18T01:58:00.600Z,15.26
2018-06-18T01:59:00.767Z,15.23
2018-06-18T02:00:00.908Z,15.24
2018-06-18T02:01:01.063Z,15.11
2018-06-18T02:02:01.216Z,15.11
2018-06-18T02:03:01.370Z,15.12
2018-06-18T02:04:01.526Z,15.20
2018-06-18T02:05:01.676Z,15.24
2018-06-18T02:06:01.831Z,15.27
2018-06-18T02:07:01.985Z,15.15
2018-06-18T02:08:02.141Z,15.02
2018-06-18T02:09:02.292Z,14.91
2018-06-18T02:10:02.447Z,15.09
2018-06-18T02:11:02.600Z,14.94
2018-06-18T02:12:02.754Z,15.01
2018-06-18T02:13:02.906Z,15.08
2018-06-18T02:14:03.064Z,14.99
2018-06-18T02:15:03.214Z,14.99
2018-06-18T02:16:03.371Z,14.98
2018-06-18T02:17:03.523Z,14.93
2018-06-18T02:18:03.674Z,14.91
2018-06-18T02:19:03.829Z,14.84
2018-06-18T02:20:03.982Z,14.94
2018-06-18T02:21:04.138Z,14.91
2018-06-18T02:22:04.293Z,14.87
2018-06-18T02:23:04.442Z,14.99
2018-06-18T02:24:04.594Z,14.95
2018-06-18T02:25:04.749Z,14.91
2018-06-18T02:26:04.901Z,15.02
2018-06-18T02:27:05.057Z,15.05
2018-06-18T02:28:05.212Z,15.06
2018-06-18T02:29:05.366Z,15.19
2018-06-18T02:30:05.520Z,15.20
2018-06-18T02:31:05.671Z,15.23
2018-06-18T02:32:05.832Z,15.24
2018-06-18T02:33:05.985Z,15.39
2018-06-18T02:34:06.140Z,15.36
2018-06-18T02:35:06.294Z,15.39
2018-06-18T02:36:06.447Z,15.43
2018-06-18T02:37:06.599Z,15.42
2018-06-18T02:38:06.758Z,15.35
2018-06-18T02:39:06.907Z,15.36
2018-06-18T02:40:07.061Z,15.27
2018-06-18T02:41:07.215Z,15.30
2018-06-18T02:42:07.367Z,15.24
2018-06-18T02:43:07.519Z,15.11
2018-06-18T02:44:07.673Z,15.11
2018-06-18T02:45:07.825Z,15.08
2018-06-18T02:46:07.983Z,15.01
2018-06-18T02:47:08.135Z,15.02
2018-06-18T02:48:08.312Z,15.06
2018-06-18T02:49:08.463Z,14.87
2018-06-18T02:50:08.616Z,14.88
2018-06-18T02:51:08.769Z,14.93
2018-06-18T02:52:08.924Z,14.91
2018-06-18T02:53:09.079Z,14.95
2018-06-18T02:54:09.232Z,14.94
2018-06-18T02:55:09.384Z,14.86
2018-06-18T02:56:09.543Z,14.83
2018-06-18T02:57:09.694Z,14.91
2018-06-18T02:58:09.845Z,14.93
2018-06-18T02:59:09.998Z,14.91
2018-06-18T03:00:10.158Z,14.84
2018-06-18T03:01:10.308Z,14.81
2018-06-18T03:02:10.461Z,14.80
2018-06-18T03:03:10.616Z,14.81
2018-06-18T03:04:10.770Z,14.87
2018-06-18T03:05:10.925Z,14.80
2018-06-18T03:06:11.079Z,14.75
2018-06-18T03:07:11.235Z,14.86
2018-06-18T03:08:11.390Z,14.90
2018-06-18T03:09:11.545Z,14.86
2018-06-18T03:10:11.699Z,14.91
2018-06-18T03:11:11.851Z,14.84
2018-06-18T03:12:12.006Z,14.84
2018-06-18T03:13:12.161Z,14.90
2018-06-18T03:14:12.317Z,14.83
2018-06-18T03:15:12.470Z,14.81
2018-06-18T03:16:12.625Z,14.62
2018-06-18T03:17:12.779Z,14.62
2018-06-18T03:18:12.932Z,14.54
2018-06-18T03:19:13.085Z,14.61
2018-06-18T03:20:13.240Z,14.52
2018-06-18T03:21:13.392Z,14.57
2018-06-18T03:22:13.546Z,14.57
2018-06-18T03:23:13.704Z,14.56
2018-06-18T03:24:13.857Z,14.52
2018-06-18T03:25:14.009Z,14.69
2018-06-18T03:26:14.163Z,14.60
2018-06-18T03:27:14.317Z,14.72
2018-06-18T03:28:14.470Z,14.67
2018-06-18T03:29:14.625Z,14.65
2018-06-18T03:30:14.781Z,14.74
2018-06-18T03:31:14.936Z,14.74
2018-06-18T03:32:15.089Z,14.86
2018-06-18T03:33:15.242Z,14.84
2018-06-18T03:34:15.421Z,14.90
2018-06-18T03:35:15.546Z,14.88
2018-06-18T03:36:15.700Z,14.94
2018-06-18T03:37:15.912Z,14.91
2018-06-18T03:38:16.009Z,15.02
2018-06-18T03:39:16.161Z,15.06
2018-06-18T03:40:16.317Z,15.11
2018-06-18T03:41:16.473Z,15.15
2018-06-18T03:42:16.627Z,15.02
2018-06-18T03:43:16.785Z,15.03
2018-06-18T03:44:16.936Z,15.09
2018-06-18T03:45:17.089Z,15.11
2018-06-18T03:46:17.243Z,15.19
2018-06-18T03:47:17.394Z,15.09
2018-06-18T03:48:17.548Z,15.12
2018-06-18T03:49:17.703Z,15.20
2018-06-18T03:50:17.857Z,15.23
2018-06-18T03:51:18.012Z,15.24
2018-06-18T03:52:18.166Z,15.12
2018-06-18T03:53:18.317Z,15.20
2018-06-18T03:54:18.472Z,15.30
2018-06-18T03:55:18.626Z,15.28
2018-06-18T03:56:18.823Z,15.35
2018-06-18T03:57:18.936Z,15.35
2018-06-18T03:58:19.089Z,15.42
2018-06-18T03:59:19.244Z,15.23
2018-06-18T04:00:19.398Z,15.27
2018-06-18T04:01:19.551Z,15.28
2018-06-18T04:02:19.706Z,15.19
2018-06-18T04:03:19.859Z,15.09
2018-06-18T04:04:20.015Z,15.08
2018-06-18T04:05:20.229Z,15.12
2018-06-18T04:06:20.322Z,15.26
2018-06-18T04:07:20.473Z,15.21
2018-06-18T04:08:20.630Z,15.28
2018-06-18T04:09:20.780Z,15.27
2018-06-18T04:10:20.934Z,15.27
2018-06-18T04:11:21.771Z,15.20
2018-06-18T04:12:21.346Z,15.24
2018-06-18T04:13:21.395Z,15.20
2018-06-18T04:14:21.593Z,15.33
2018-06-18T04:15:21.712Z,15.38
2018-06-18T04:16:21.850Z,15.42
2018-06-18T04:17:21.995Z,15.27
2018-06-18T04:18:22.147Z,15.36
2018-06-18T04:19:22.308Z,15.45
2018-06-18T04:20:22.458Z,15.49
2018-06-18T04:21:22.611Z,15.61
2018-06-18T04:22:22.769Z,15.66
2018-06-18T04:23:22.920Z,15.82
2018-06-18T04:24:23.076Z,15.84
2018-06-18T04:25:23.230Z,15.84
2018-06-18T04:26:23.384Z,15.81
2018-06-18T04:27:23.538Z,15.82
2018-06-18T04:28:23.694Z,15.67
2018-06-18T04:29:23.848Z,15.74
2018-06-18T04:30:24.003Z,15.88
2018-06-18T04:31:24.156Z,15.88
2018-06-18T04:32:24.311Z,15.99
2018-06-18T04:33:24.468Z,15.93
2018-06-18T04:34:24.621Z,15.99
2018-06-18T04:35:24.773Z,16.06
2018-06-18T04:36:24.930Z,16.03
2018-06-18T04:37:25.085Z,16.15
2018-06-18T04:38:25.239Z,16.20
2018-06-18T04:39:25.395Z,16.27
2018-06-18T04:40:25.549Z,16.22
2018-06-18T04:41:25.704Z,16.15
2018-06-18T04:42:25.866Z,16.23
2018-06-18T04:43:26.012Z,16.23
2018-06-18T04:44:26.164Z,16.27
2018-06-18T04:45:26.321Z,16.33
2018-06-18T04:46:26.475Z,16.34
2018-06-18T04:47:26.633Z,16.42
2018-06-18T04:48:26.790Z,16.26
2018-06-18T04:49:26.942Z,16.26
2018-06-18T04:50:27.096Z,16.20
2018-06-18T04:51:27.250Z,16.26
2018-06-18T04:52:27.405Z,16.35
2018-06-18T04:53:27.560Z,16.26
2018-06-18T04:54:27.712Z,16.41
2018-06-18T04:55:27.869Z,16.33
2018-06-18T04:56:28.087Z,16.23
2018-06-18T04:57:28.177Z,16.40
2018-06-18T04:58:28.333Z,16.41
2018-06-18T04:59:28.487Z,16.49
2018-06-18T05:00:28.644Z,16.50
2018-06-18T05:01:28.797Z,16.53
2018-06-18T05:02:28.953Z,16.63
2018-06-18T05:03:29.108Z,16.55
2018-06-18T05:04:29.264Z,16.55
2018-06-18T05:05:29.417Z,16.48
2018-06-18T05:06:29.574Z,16.49
2018-06-18T05:07:29.780Z,16.22
2018-06-18T05:08:29.884Z,16.14
2018-06-18T05:09:30.036Z,15.97
2018-06-18T05:10:30.193Z,16.12
2018-06-18T05:11:30.348Z,16.18
2018-06-18T05:12:30.502Z,16.25
2018-06-18T05:13:30.659Z,16.26
2018-06-18T05:14:30.815Z,16.38
2018-06-18T05:15:30.963Z,16.49
2018-06-18T05:16:31.121Z,16.73
2018-06-18T05:17:31.273Z,16.70
2018-06-18T05:18:31.430Z,16.77
2018-06-18T05:19:31.589Z,16.86
2018-06-18T05:20:31.790Z,16.71
2018-06-18T05:21:31.894Z,16.88
2018-06-18T05:22:32.049Z,16.93
2018-06-18T05:23:32.202Z,16.93
2018-06-18T05:24:32.356Z,17.00
2018-06-18T05:25:32.513Z,16.85
2018-06-18T05:26:32.669Z,17.04
2018-06-18T05:27:32.823Z,16.89
2018-06-18T05:28:32.990Z,16.96
2018-06-18T05:29:33.140Z,17.00
2018-06-18T05:30:33.292Z,16.83
2018-06-18T05:31:33.447Z,16.83
2018-06-18T05:32:33.602Z,16.78
2018-06-18T05:33:33.757Z,16.58
2018-06-18T05:34:33.913Z,16.59
2018-06-18T05:35:34.067Z,16.78
2018-06-18T05:36:34.223Z,16.71
2018-06-18T05:37:34.377Z,16.81
2018-06-18T05:38:34.532Z,16.86
2018-06-18T05:39:34.685Z,17.03
2018-06-18T05:40:34.843Z,17.04
2018-06-18T05:41:35.002Z,17.10
2018-06-18T05:42:35.151Z,17.14
2018-06-18T05:43:35.340Z,17.26
2018-06-18T05:44:35.464Z,17.26
2018-06-18T05:45:35.617Z,17.35
2018-06-18T05:46:35.773Z,17.28
2018-06-18T05:47:35.927Z,17.32
2018-06-18T05:48:36.083Z,17.40
2018-06-18T05:49:36.238Z,17.18
2018-06-18T05:50:36.442Z,17.23
2018-06-18T05:51:36.549Z,17.23
2018-06-18T05:52:36.703Z,17.44
2018-06-18T05:53:36.858Z,17.43
2018-06-18T05:54:37.012Z,17.57
2018-06-18T05:55:37.168Z,17.70
2018-06-18T05:56:37.324Z,17.40
2018-06-18T05:57:37.478Z,17.46
2018-06-18T05:58:37.635Z,17.30
2018-06-18T05:59:37.790Z,17.40
2018-06-18T06:00:37.945Z,17.57
2018-06-18T06:01:38.100Z,17.36
2018-06-18T06:02:38.253Z,17.43
2018-06-18T06:03:38.409Z,17.23
2018-06-18T06:04:38.563Z,17.08
2018-06-18T06:05:38.719Z,17.07
2018-06-18T06:06:38.875Z,17.10
2018-06-18T06:07:39.030Z,17.25
2018-06-18T06:08:39.191Z,17.46
2018-06-18T06:09:39.342Z,17.70
2018-06-18T06:10:39.497Z,17.78
2018-06-18T06:11:39.652Z,17.79
2018-06-18T06:12:39.808Z,17.82
2018-06-18T06:13:39.965Z,17.97
2018-06-18T06:14:40.120Z,18.21
2018-06-18T06:15:40.276Z,18.19
2018-06-18T06:16:40.431Z,18.13
2018-06-18T06:17:40.588Z,18.39
2018-06-18T06:18:40.744Z,18.49
2018-06-18T06:19:40.899Z,18.47
2018-06-18T06:20:41.059Z,18.31
2018-06-18T06:21:41.211Z,18.27
2018-06-18T06:22:41.367Z,18.46
2018-06-18T06:23:41.520Z,18.61
2018-06-18T06:24:41.676Z,18.68
2018-06-18T06:25:41.834Z,18.76
2018-06-18T06:26:41.990Z,18.91
2018-06-18T06:27:42.145Z,18.79
2018-06-18T06:28:42.302Z,18.73
2018-06-18T06:29:42.652Z,18.58
2018-06-18T06:30:42.618Z,18.64
2018-06-18T06:31:42.773Z,18.76
2018-06-18T06:32:42.929Z,18.73
2018-06-18T06:33:43.085Z,18.58
2018-06-18T06:34:43.243Z,18.61
2018-06-18T06:35:43.399Z,18.70
2018-06-18T06:36:43.563Z,18.72
2018-06-18T06:37:43.716Z,18.54
2018-06-18T06:38:43.872Z,18.40
2018-06-18T06:39:44.032Z,18.62
2018-06-18T06:40:44.185Z,18.62
2018-06-18T06:41:44.340Z,18.83
2018-06-18T06:42:44.495Z,18.95
2018-06-18T06:43:44.664Z,19.11
2018-06-18T06:44:44.813Z,19.11
2018-06-18T06:45:44.972Z,19.36
2018-06-18T06:46:45.131Z,19.54
2018-06-18T06:47:45.285Z,19.63
2018-06-18T06:48:45.497Z,19.47
2018-06-18T06:49:45.633Z,19.31
2018-06-18T06:50:45.785Z,19.36
2018-06-18T06:51:45.945Z,19.40
2018-06-18T06:52:46.102Z,19.48
2018-06-18T06:53:46.259Z,19.36
2018-06-18T06:54:46.417Z,19.51
2018-06-18T06:55:46.574Z,19.51
2018-06-18T06:56:46.729Z,19.46
2018-06-18T06:57:46.885Z,19.55
2018-06-18T06:58:47.044Z,19.23
2018-06-18T06:59:47.204Z,19.01
2018-06-18T07:00:47.359Z,18.92
2018-06-18T07:01:47.518Z,18.90
2018-06-18T07:02:47.676Z,18.79
2018-06-18T07:03:47.831Z,18.79
2018-06-18T07:04:47.989Z,18.67
2018-06-18T07:05:48.147Z,18.59
2018-06-18T07:06:48.303Z,18.39
2018-06-18T07:07:48.462Z,18.46
2018-06-18T07:08:48.616Z,18.54
2018-06-18T07:09:48.777Z,18.61
2018-06-18T07:10:48.934Z,18.64
2018-06-18T07:11:49.090Z,18.77
2018-06-18T07:12:49.245Z,18.64
2018-06-18T07:13:49.400Z,18.73
2018-06-18T07:14:49.563Z,18.59
2018-06-18T07:15:49.714Z,18.70
2018-06-18T07:16:49.873Z,18.86
2018-06-18T07:17:50.035Z,18.59
2018-06-18T07:18:50.191Z,18.59
2018-06-18T07:19:50.341Z,18.42
2018-06-18T07:20:50.497Z,18.58
2018-06-18T07:21:50.656Z,18.47
2018-06-18T07:22:50.810Z,18.34
2018-06-18T07:23:50.968Z,18.43
2018-06-18T07:24:51.126Z,18.59
2018-06-18T07:25:51.280Z,18.64
2018-06-18T07:26:51.438Z,18.64
2018-06-18T07:27:51.593Z,18.74
2018-06-18T07:28:51.752Z,18.83
2018-06-18T07:29:51.908Z,18.90
2018-06-18T07:30:52.115Z,19.02
2018-06-18T07:31:52.219Z,19.05
2018-06-18T07:32:52.378Z,19.01
2018-06-18T07:33:52.533Z,19.01
2018-06-18T07:34:52.690Z,19.11
2018-06-18T07:35:52.850Z,19.18
2018-06-18T07:36:53.006Z,19.23
2018-06-18T07:37:53.163Z,19.24
2018-06-18T07:38:53.318Z,19.18
2018-06-18T07:39:53.474Z,19.25
2018-06-18T07:40:53.632Z,19.29
2018-06-18T07:41:53.790Z,19.28
2018-06-18T07:42:53.950Z,19.11
2018-06-18T07:43:54.103Z,19.10
2018-06-18T07:44:54.258Z,19.10
2018-06-18T07:45:54.440Z,19.02
2018-06-18T07:46:54.571Z,19.23
2018-06-18T07:47:54.729Z,19.24
2018-06-18T07:48:54.886Z,19.18
2018-06-18T07:49:55.044Z,19.25
2018-06-18T07:50:55.199Z,19.36
2018-06-18T07:51:55.354Z,19.40
2018-06-18T07:52:55.512Z,19.35
2018-06-18T07:53:55.667Z,19.40
2018-06-18T07:54:55.824Z,19.70
2018-06-18T07:55:55.984Z,19.72
2018-06-18T07:56:56.141Z,19.76
2018-06-18T07:57:56.296Z,19.83
2018-06-18T07:58:56.454Z,19.68
2018-06-18T07:59:56.611Z,19.84
2018-06-18T08:00:56.768Z,19.86
2018-06-18T08:01:56.924Z,19.75
2018-06-18T08:02:57.081Z,19.58
2018-06-18T08:03:57.239Z,19.57
2018-06-18T08:04:57.397Z,19.75
2018-06-18T08:05:57.562Z,19.65
2018-06-18T08:06:57.713Z,19.53
2018-06-18T08:07:57.868Z,19.54
2018-06-18T08:08:58.027Z,19.48
2018-06-18T08:09:58.251Z,19.40
2018-06-18T08:10:58.337Z,19.42
2018-06-18T08:11:58.495Z,19.25
2018-06-18T08:12:58.653Z,19.33
2018-06-18T08:13:58.813Z,19.42
2018-06-18T08:14:58.967Z,19.38
2018-06-18T08:15:59.128Z,19.38
2018-06-18T08:16:59.284Z,19.36
2018-06-18T08:17:59.438Z,19.43
2018-06-18T08:18:59.595Z,19.51
2018-06-18T08:19:59.753Z,19.70
2018-06-18T08:20:59.908Z,20.00
2018-06-18T08:22:00.065Z,20.12
2018-06-18T08:23:00.222Z,20.35
2018-06-18T08:24:00.378Z,20.58
2018-06-18T08:25:00.536Z,20.61
2018-06-18T08:26:00.695Z,20.87
2018-06-18T08:27:00.904Z,20.90
2018-06-18T08:28:01.007Z,20.96
2018-06-18T08:29:01.167Z,20.76
2018-06-18T08:30:01.323Z,20.50
2018-06-18T08:31:01.483Z,20.42
2018-06-18T08:32:01.639Z,19.80
2018-06-18T08:33:01.797Z,20.02
2018-06-18T08:34:01.952Z,20.08
2018-06-18T08:35:02.109Z,20.10
2018-06-18T08:36:02.269Z,19.93
2018-06-18T08:37:02.423Z,19.55
2018-06-18T08:38:02.579Z,19.73
2018-06-18T08:39:02.737Z,19.76
2018-06-18T08:40:02.894Z,19.75
2018-06-18T08:41:03.052Z,19.87
2018-06-18T08:42:03.209Z,19.87
2018-06-18T08:43:03.365Z,19.79
2018-06-18T08:44:03.524Z,19.88
2018-06-18T08:45:03.680Z,20.00
2018-06-18T08:46:03.838Z,20.05
2018-06-18T08:47:03.995Z,20.27
2018-06-18T08:48:04.154Z,20.23
2018-06-18T08:49:04.311Z,20.49
2018-06-18T08:50:04.469Z,20.50
2018-06-18T08:51:04.627Z,20.50
2018-06-18T08:52:04.787Z,20.64
2018-06-18T08:53:04.942Z,20.72
2018-06-18T08:54:05.100Z,20.81
2018-06-18T08:55:05.258Z,20.81
2018-06-18T08:56:05.415Z,20.76
2018-06-18T08:57:05.575Z,20.72
2018-06-18T08:58:05.731Z,20.49
2018-06-18T08:59:05.887Z,20.28
2018-06-18T09:00:06.046Z,20.50
2018-06-18T09:01:06.202Z,20.41
2018-06-18T09:02:06.361Z,20.69
2018-06-18T09:03:06.572Z,20.61
2018-06-18T09:04:06.674Z,20.61
2018-06-18T09:05:06.832Z,20.41
2018-06-18T09:06:06.992Z,20.21
2018-06-18T09:07:07.152Z,20.08
2018-06-18T09:08:07.307Z,20.31
2018-06-18T09:09:07.472Z,20.38
2018-06-18T09:10:07.634Z,20.39
2018-06-18T09:11:07.789Z,20.77
2018-06-18T09:12:07.951Z,20.91
2018-06-18T09:13:08.102Z,20.83
2018-06-18T09:14:08.263Z,20.80
2018-06-18T09:15:08.421Z,20.86
2018-06-18T09:16:08.585Z,20.99
2018-06-18T09:17:08.736Z,20.81
2018-06-18T09:18:08.893Z,20.77
2018-06-18T09:19:09.054Z,20.61
2018-06-18T09:20:09.210Z,20.81
2018-06-18T09:21:09.368Z,20.90
2018-06-18T09:22:09.527Z,20.98
2018-06-18T09:23:09.686Z,20.95
2018-06-18T09:24:09.844Z,21.14
2018-06-18T09:25:10.004Z,21.08
2018-06-18T09:26:10.165Z,21.19
2018-06-18T09:27:10.320Z,21.34
2018-06-18T09:28:10.479Z,21.45
2018-06-18T09:29:10.635Z,21.60
2018-06-18T09:30:10.797Z,21.72
2018-06-18T09:31:10.956Z,21.88
2018-06-18T09:32:11.197Z,21.95
2018-06-18T09:33:11.313Z,21.76
2018-06-18T09:34:11.431Z,21.46
2018-06-18T09:35:11.589Z,21.29
2018-06-18T09:36:11.747Z,21.60
2018-06-18T09:37:11.904Z,21.82
2018-06-18T09:38:12.064Z,21.26
2018-06-18T09:39:12.222Z,21.38
2018-06-18T09:40:12.381Z,21.45
2018-06-18T09:41:12.543Z,21.61
2018-06-18T09:42:12.700Z,21.50
2018-06-18T09:43:12.857Z,21.50
2018-06-18T09:44:13.015Z,21.51
2018-06-18T09:45:13.174Z,21.57
2018-06-18T09:46:13.335Z,21.67
2018-06-18T09:47:13.494Z,21.78
2018-06-18T09:48:13.654Z,21.88
2018-06-18T09:49:13.811Z,21.88
2018-06-18T09:50:13.970Z,22.16
2018-06-18T09:51:14.129Z,22.23
2018-06-18T09:52:14.287Z,22.38
2018-06-18T09:53:14.463Z,22.38
2018-06-18T09:54:14.604Z,22.60
2018-06-18T09:55:14.763Z,22.86
2018-06-18T09:56:14.923Z,22.56
2018-06-18T09:57:15.080Z,22.46
2018-06-18T09:58:15.239Z,22.53
2018-06-18T09:59:15.396Z,22.50
2018-06-18T10:00:15.559Z,22.50
2018-06-18T10:01:15.742Z,22.12
2018-06-18T10:02:15.938Z,21.83
2018-06-18T10:03:16.100Z,21.97
2018-06-18T10:04:16.220Z,22.02
2018-06-18T10:05:16.378Z,22.13
2018-06-18T10:06:16.539Z,21.98
2018-06-18T10:07:16.700Z,22.02
2018-06-18T10:08:16.907Z,21.99
2018-06-18T10:09:17.021Z,21.98
2018-06-18T10:10:17.182Z,21.97
2018-06-18T10:11:17.345Z,22.25
2018-06-18T10:12:17.502Z,22.25
2018-06-18T10:13:17.665Z,22.39
2018-06-18T10:14:17.823Z,22.57
2018-06-18T10:15:17.985Z,22.49
2018-06-18T10:16:18.145Z,22.64
2018-06-18T10:17:18.301Z,22.64
2018-06-18T10:18:18.462Z,22.86
2018-06-18T10:19:18.623Z,22.75
2018-06-18T10:20:18.782Z,22.87
2018-06-18T10:21:18.942Z,22.90
2018-06-18T10:22:19.100Z,22.82
2018-06-18T10:23:19.257Z,22.90
2018-06-18T10:24:19.475Z,22.46
2018-06-18T10:25:19.577Z,22.44
2018-06-18T10:26:19.735Z,22.22
2018-06-18T10:27:19.898Z,22.32
2018-06-18T10:28:20.056Z,22.43
2018-06-18T10:29:20.217Z,22.16
2018-06-18T10:30:20.376Z,22.20
2018-06-18T10:31:20.535Z,22.47
2018-06-18T10:32:20.693Z,22.56
2018-06-18T10:33:20.853Z,22.57
2018-06-18T10:34:21.012Z,22.43
2018-06-18T10:35:21.171Z,22.44
2018-06-18T10:36:21.332Z,22.59
2018-06-18T10:37:21.490Z,22.53
2018-06-18T10:38:21.650Z,22.52
2018-06-18T10:39:21.811Z,22.35
2018-06-18T10:40:21.981Z,22.25
2018-06-18T10:41:22.138Z,22.31
2018-06-18T10:42:22.300Z,22.46
2018-06-18T10:43:22.459Z,22.60
2018-06-18T10:44:22.620Z,22.65
2018-06-18T10:45:22.779Z,22.59
2018-06-18T10:46:22.937Z,22.22
2018-06-18T10:47:23.098Z,22.22
2018-06-18T10:48:23.257Z,21.85
2018-06-18T10:49:23.416Z,21.67
2018-06-18T10:50:23.575Z,21.72
2018-06-18T10:51:23.738Z,21.85
2018-06-18T10:52:23.895Z,21.82
2018-06-18T10:53:24.056Z,21.81
2018-06-18T10:54:24.218Z,21.88
2018-06-18T10:55:24.375Z,21.79
2018-06-18T10:56:24.532Z,21.82
2018-06-18T10:57:24.690Z,22.10
2018-06-18T10:58:24.850Z,22.22
2018-06-18T10:59:25.009Z,22.34
2018-06-18T11:00:25.175Z,22.32
2018-06-18T11:01:25.327Z,22.57
2018-06-18T11:02:25.490Z,22.82
2018-06-18T11:03:25.644Z,22.67
2018-06-18T11:04:25.804Z,22.89
2018-06-18T11:05:25.971Z,22.94
2018-06-18T11:06:26.135Z,23.15
2018-06-18T11:07:26.294Z,22.99
2018-06-18T11:08:26.452Z,22.77
2018-06-18T11:09:26.610Z,22.56
2018-06-18T11:10:26.774Z,22.43
2018-06-18T11:11:26.932Z,22.28
2018-06-18T11:12:27.092Z,22.47
2018-06-18T11:13:27.250Z,22.54
2018-06-18T11:14:27.410Z,22.53
2018-06-18T11:15:27.569Z,22.62
2018-06-18T11:16:27.919Z,22.53
2018-06-18T11:17:28.182Z,22.50
2018-06-18T11:18:28.050Z,22.37
2018-06-18T11:19:28.209Z,22.28
2018-06-18T11:20:28.370Z,22.60
2018-06-18T11:21:28.527Z,22.50
2018-06-18T11:22:28.709Z,22.71
2018-06-18T11:23:28.852Z,22.83
2018-06-18T11:24:29.600Z,22.68
2018-06-18T11:25:29.111Z,22.97
2018-06-18T11:26:29.346Z,22.68
2018-06-18T11:27:29.430Z,22.82
2018-06-18T11:28:29.654Z,23.01
2018-06-18T11:29:29.754Z,22.57
2018-06-18T11:30:29.911Z,22.82
2018-06-18T11:31:30.075Z,22.99
2018-06-18T11:32:30.259Z,22.80
2018-06-18T11:33:30.395Z,23.01
2018-06-18T11:34:30.556Z,22.72
2018-06-18T11:35:30.725Z,22.67
2018-06-18T11:36:30.875Z,22.74
2018-06-18T11:37:31.039Z,22.99
2018-06-18T11:38:31.199Z,22.90
2018-06-18T11:39:31.381Z,23.02
2018-06-18T11:40:31.521Z,23.24
2018-06-18T11:41:31.681Z,23.26
2018-06-18T11:42:31.843Z,23.23
2018-06-18T11:43:32.072Z,23.02
2018-06-18T11:44:32.164Z,22.78
2018-06-18T11:45:32.323Z,22.49
2018-06-18T11:46:32.484Z,22.59
2018-06-18T11:47:32.649Z,22.47
2018-06-18T11:48:32.813Z,22.50
2018-06-18T11:49:32.974Z,22.43
2018-06-18T11:50:33.133Z,22.46
2018-06-18T11:51:33.293Z,22.44
2018-06-18T11:52:33.501Z,22.49
2018-06-18T11:53:33.613Z,22.52
2018-06-18T11:54:33.773Z,22.56
2018-06-18T11:55:33.938Z,22.49
2018-06-18T11:56:34.095Z,22.57
2018-06-18T11:57:34.254Z,22.65
2018-06-18T11:58:34.420Z,22.56
2018-06-18T11:59:34.575Z,22.54
2018-06-18T12:00:34.739Z,22.68
2018-06-18T12:01:34.899Z,22.82
2018-06-18T12:02:35.061Z,22.89
2018-06-18T12:03:35.219Z,22.57
2018-06-18T12:04:35.380Z,22.56
2018-06-18T12:05:35.539Z,22.54
2018-06-18T12:06:35.697Z,22.69
2018-06-18T12:07:35.857Z,22.71
2018-06-18T12:08:36.023Z,22.89
2018-06-18T12:09:36.243Z,22.90
2018-06-18T12:10:36.339Z,22.93
2018-06-18T12:11:36.501Z,22.86
2018-06-18T12:12:36.658Z,22.83
2018-06-18T12:13:36.816Z,22.84
2018-06-18T12:14:36.979Z,22.97
2018-06-18T12:15:37.138Z,23.07
2018-06-18T12:16:37.307Z,22.99
2018-06-18T12:17:37.456Z,23.17
2018-06-18T12:18:37.617Z,23.23
2018-06-18T12:19:37.776Z,23.34
2018-06-18T12:20:37.932Z,23.40
2018-06-18T12:21:38.093Z,23.52
2018-06-18T12:22:38.251Z,23.67
2018-06-18T12:23:38.416Z,23.70
2018-06-18T12:24:38.581Z,23.14
2018-06-18T12:25:38.738Z,23.24
2018-06-18T12:26:38.896Z,23.17
2018-06-18T12:27:39.059Z,23.17
2018-06-18T12:28:39.218Z,23.12
2018-06-18T12:29:39.380Z,23.05
2018-06-18T12:30:39.537Z,22.87
2018-06-18T12:31:39.703Z,22.90
2018-06-18T12:32:39.862Z,22.71
2018-06-18T12:33:40.024Z,22.77
2018-06-18T12:34:40.181Z,22.47
2018-06-18T12:35:40.341Z,22.64
2018-06-18T12:36:40.509Z,22.65
2018-06-18T12:37:40.661Z,22.56
2018-06-18T12:38:40.818Z,22.67
2018-06-18T12:39:40.981Z,22.69
2018-06-18T12:40:41.147Z,22.69
2018-06-18T12:41:41.300Z,22.62
2018-06-18T12:42:41.461Z,22.69
2018-06-18T12:43:41.620Z,22.69
2018-06-18T12:44:41.781Z,22.78
2018-06-18T12:45:41.938Z,22.80
2018-06-18T12:46:42.147Z,22.94
2018-06-18T12:47:42.263Z,22.83
2018-06-18T12:48:42.421Z,22.87
2018-06-18T12:49:42.579Z,23.01
2018-06-18T12:50:42.743Z,22.84
2018-06-18T12:51:42.902Z,23.01
2018-06-18T12:52:43.062Z,22.52
2018-06-18T12:53:43.223Z,22.56
2018-06-18T12:54:43.382Z,22.50